createdAt,value
2017-12-19T00:04:46.660Z,15.93
2017-12-19T00:20:46.069Z,15.47
2017-12-19T00:25:46.897Z,15.90
2017-12-19T00:30:47.700Z,16.50
2017-12-19T00:35:48.530Z,14.63
2017-12-19T00:40:49.390Z,16.30
2017-12-19T00:45:52.206Z,15.30
2017-12-19T00:50:53.021Z,15.83
2017-12-19T00:55:53.840Z,15.50
2017-12-19T01:00:54.645Z,15.13
2017-12-19T01:05:55.436Z,13.37
2017-12-19T01:10:56.273Z,13.63
2017-12-19T01:15:57.121Z,14.27
2017-12-19T01:20:57.941Z,15.43
2017-12-19T01:25:58.783Z,14.17
2017-12-19T01:30:59.587Z,17.23
2017-12-19T01:36:00.424Z,13.10
2017-12-19T01:41:01.234Z,13.90
2017-12-19T01:46:02.017Z,12.60
2017-12-19T01:51:02.869Z,14.60
2017-12-19T01:56:03.678Z,15.10
2017-12-19T02:01:04.534Z,13.40
2017-12-19T02:06:05.345Z,14.00
2017-12-19T02:11:06.193Z,14.03
2017-12-19T02:16:07.053Z,14.13
2017-12-19T02:21:07.888Z,14.47
2017-12-19T02:26:08.757Z,12.90
2017-12-19T02:31:09.586Z,13.90
2017-12-19T02:36:10.444Z,13.27
2017-12-19T02:41:11.257Z,12.20
2017-12-19T02:46:12.073Z,14.03
2017-12-19T02:51:12.882Z,12.40
2017-12-19T02:56:13.693Z,14.10
2017-12-19T03:01:14.503Z,12.17
2017-12-19T03:06:15.332Z,13.00
2017-12-19T03:11:16.160Z,14.53
2017-12-19T03:16:16.970Z,13.27
2017-12-19T03:21:17.789Z,13.10
2017-12-19T03:26:18.575Z,13.97
2017-12-19T03:31:19.395Z,12.53
2017-12-19T03:36:20.213Z,14.83
2017-12-19T03:41:21.042Z,15.40
2017-12-19T03:46:21.882Z,13.90
2017-12-19T03:51:22.714Z,14.27
2017-12-19T03:56:23.574Z,13.17
2017-12-19T04:01:24.389Z,15.60
2017-12-19T04:06:25.210Z,14.97
2017-12-19T04:11:26.066Z,14.50
2017-12-19T04:16:26.883Z,12.60
2017-12-19T04:21:27.725Z,13.10
2017-12-19T04:26:28.585Z,11.50
2017-12-19T04:31:29.389Z,12.00
2017-12-19T04:36:30.216Z,12.37
2017-12-19T04:41:31.098Z,11.93
2017-12-19T04:46:31.915Z,12.00
2017-12-19T04:51:32.710Z,13.20
2017-12-19T04:56:33.537Z,13.00
2017-12-19T05:01:34.326Z,11.70
2017-12-19T05:06:41.307Z,13.20
2017-12-19T05:11:42.138Z,11.67
2017-12-19T05:16:42.954Z,11.60
2017-12-19T05:21:43.771Z,13.17
2017-12-19T05:26:44.558Z,12.97
2017-12-19T05:31:45.418Z,13.70
2017-12-19T05:36:46.249Z,13.70
2017-12-19T05:41:47.644Z,12.50
2017-12-19T05:46:48.447Z,12.63
2017-12-19T05:51:49.265Z,14.07
2017-12-19T05:56:50.065Z,12.50
2017-12-19T06:01:50.853Z,11.87
2017-12-19T06:06:51.657Z,12.43
2017-12-19T06:11:52.493Z,12.37
2017-12-19T06:16:53.291Z,12.77
2017-12-19T06:21:54.097Z,12.80
2017-12-19T06:26:54.907Z,11.37
2017-12-19T06:31:55.703Z,11.57
2017-12-19T06:36:56.651Z,11.20
2017-12-19T06:41:57.453Z,11.90
2017-12-19T06:46:58.331Z,12.37
2017-12-19T06:51:59.136Z,12.00
2017-12-19T06:56:59.962Z,13.90
2017-12-19T07:02:00.774Z,11.60
2017-12-19T07:07:08.611Z,12.33
2017-12-19T07:12:09.461Z,12.80
2017-12-19T07:17:13.702Z,10.97
2017-12-19T07:22:14.733Z,12.47
2017-12-19T07:27:15.594Z,12.70
2017-12-19T07:32:16.434Z,13.20
2017-12-19T07:37:17.236Z,14.30
2017-12-19T07:42:21.105Z,13.90
2017-12-19T07:47:21.992Z,14.00
2017-12-19T07:52:22.801Z,14.63
2017-12-19T07:57:23.609Z,14.07
2017-12-19T08:02:24.541Z,14.90
2017-12-19T08:07:25.336Z,14.90
2017-12-19T08:12:26.175Z,14.67
2017-12-19T08:17:26.969Z,16.37
2017-12-19T08:22:27.785Z,15.03
2017-12-19T08:27:28.629Z,15.40
2017-12-19T08:32:29.449Z,17.23
2017-12-19T08:37:30.330Z,15.63
2017-12-19T08:42:31.159Z,17.57
2017-12-19T08:47:31.992Z,18.47
2017-12-19T08:52:32.820Z,18.10
2017-12-19T08:57:33.614Z,18.50
2017-12-19T09:02:34.467Z,16.53
2017-12-19T09:07:35.326Z,16.37
2017-12-19T09:12:36.181Z,15.83
2017-12-19T09:17:37.052Z,16.40
2017-12-19T09:22:37.906Z,16.67
2017-12-19T09:27:38.744Z,15.97
2017-12-19T09:32:39.587Z,15.90
2017-12-19T09:37:40.404Z,15.30
2017-12-19T09:42:41.252Z,16.33
2017-12-19T09:47:42.077Z,17.00
2017-12-19T09:52:42.925Z,16.87
2017-12-19T09:57:43.737Z,17.03
2017-12-19T10:02:44.535Z,16.03
2017-12-19T10:07:45.385Z,14.17
2017-12-19T10:12:46.216Z,14.67
2017-12-19T10:17:47.067Z,13.40
2017-12-19T10:22:47.902Z,15.63
2017-12-19T10:27:48.797Z,19.70
2017-12-19T10:32:49.665Z,17.70
2017-12-19T10:37:50.517Z,17.30
2017-12-19T10:42:51.330Z,15.80
2017-12-19T10:47:52.129Z,17.97
2017-12-19T10:52:52.945Z,17.63
2017-12-19T10:57:53.747Z,17.33
2017-12-19T11:02:54.548Z,17.40
2017-12-19T11:07:55.383Z,15.43
2017-12-19T11:12:56.161Z,17.80
2017-12-19T11:17:56.954Z,18.70
2017-12-19T11:22:57.821Z,17.30
2017-12-19T11:27:58.689Z,17.70
2017-12-19T11:32:59.610Z,18.00
2017-12-19T11:38:04.114Z,17.23
2017-12-19T11:43:04.946Z,18.00
2017-12-19T11:48:05.763Z,16.50
2017-12-19T11:53:06.569Z,18.40
2017-12-19T11:58:07.377Z,19.10
2017-12-19T12:03:08.205Z,18.57
2017-12-19T12:08:09.056Z,18.10
2017-12-19T12:13:09.874Z,19.60
2017-12-19T12:18:10.714Z,17.63
2017-12-19T12:23:11.565Z,17.50
2017-12-19T12:28:12.377Z,19.03
2017-12-19T12:33:13.239Z,15.90
2017-12-19T12:38:14.048Z,16.00
2017-12-19T12:43:14.947Z,16.23
2017-12-19T12:48:15.701Z,18.17
2017-12-19T12:53:16.526Z,18.20
2017-12-19T12:58:17.320Z,16.57
2017-12-19T13:03:18.142Z,17.50
2017-12-19T13:08:18.946Z,18.13
2017-12-19T13:13:19.741Z,16.50
2017-12-19T13:18:20.815Z,17.30
2017-12-19T13:23:22.597Z,17.80
2017-12-19T13:28:23.661Z,18.40
2017-12-19T13:33:24.488Z,17.20
2017-12-19T13:38:25.314Z,19.10
2017-12-19T13:43:26.153Z,15.77
2017-12-19T13:48:27.081Z,17.13
2017-12-19T13:53:27.902Z,17.30
2017-12-19T13:58:28.791Z,16.50
2017-12-19T14:03:29.609Z,17.70
2017-12-19T14:08:30.465Z,18.97
2017-12-19T14:13:32.303Z,17.13
2017-12-19T14:18:33.118Z,18.20
2017-12-19T14:28:41.558Z,20.37
2017-12-19T14:33:42.382Z,19.07
2017-12-19T14:38:43.333Z,18.60
2017-12-19T14:43:44.127Z,17.90
2017-12-19T14:48:45.287Z,16.50
2017-12-19T14:53:46.721Z,17.43
2017-12-19T14:58:47.705Z,17.47
2017-12-19T15:03:48.577Z,19.10
2017-12-19T15:08:49.369Z,20.20
2017-12-19T15:13:50.183Z,21.20
2017-12-19T15:18:50.979Z,18.33
2017-12-19T15:23:51.769Z,18.67
2017-12-19T15:28:52.594Z,19.97
2017-12-19T15:33:53.402Z,20.87
2017-12-19T15:38:54.210Z,19.23
2017-12-19T15:43:55.021Z,19.87
2017-12-19T15:48:55.846Z,20.77
2017-12-19T15:53:56.665Z,19.67
2017-12-19T15:58:58.501Z,19.77
2017-12-19T16:03:59.316Z,18.77
2017-12-19T16:09:00.141Z,19.30
2017-12-19T16:14:00.974Z,21.20
2017-12-19T16:19:01.813Z,18.60
2017-12-19T16:24:02.629Z,20.90
2017-12-19T16:29:07.437Z,19.40
2017-12-19T16:34:08.233Z,18.37
2017-12-19T16:39:09.058Z,20.97
2017-12-19T16:44:09.888Z,15.90
2017-12-19T16:49:10.733Z,16.20
2017-12-19T16:54:11.545Z,15.53
2017-12-19T16:59:12.362Z,15.57
2017-12-19T17:04:13.162Z,16.77
2017-12-19T17:09:14.000Z,14.70
2017-12-19T17:14:14.863Z,14.73
2017-12-19T17:19:19.263Z,15.10
2017-12-19T17:24:20.161Z,15.27
2017-12-19T17:29:20.998Z,13.90
2017-12-19T17:34:21.811Z,12.63
2017-12-19T17:39:22.710Z,13.43
2017-12-19T17:44:23.529Z,13.30
2017-12-19T17:49:28.140Z,13.10
2017-12-19T17:54:28.944Z,13.00
2017-12-19T17:59:29.786Z,14.83
2017-12-19T18:04:30.610Z,13.43
2017-12-19T18:09:31.787Z,14.30
2017-12-19T18:14:32.632Z,13.20
2017-12-19T18:19:33.643Z,12.37
2017-12-19T18:24:38.374Z,13.20
2017-12-19T18:29:39.232Z,12.33
2017-12-19T18:34:40.057Z,14.30
2017-12-19T18:39:40.890Z,13.20
2017-12-19T18:44:41.717Z,12.90
2017-12-19T18:49:42.599Z,12.50
2017-12-19T18:54:43.471Z,12.67
2017-12-19T18:59:46.313Z,12.60
2017-12-19T19:04:47.109Z,13.53
2017-12-19T19:09:48.737Z,13.20
2017-12-19T19:14:49.597Z,12.53
2017-12-19T19:19:50.433Z,12.27
2017-12-19T19:24:51.284Z,13.73
2017-12-19T19:29:52.133Z,11.47
2017-12-19T19:34:53.006Z,12.13
2017-12-19T19:39:53.813Z,12.60
2017-12-19T19:44:54.665Z,11.70
2017-12-19T19:49:55.529Z,11.27
2017-12-19T19:54:56.374Z,14.47
2017-12-19T19:59:57.221Z,13.07
2017-12-19T20:04:58.009Z,13.80
2017-12-19T20:09:59.894Z,14.70
2017-12-19T20:15:00.806Z,14.23
2017-12-19T20:20:01.644Z,15.00
2017-12-19T20:25:02.497Z,15.20
2017-12-19T20:30:03.455Z,15.77
2017-12-19T20:35:04.266Z,14.97
2017-12-19T20:40:05.116Z,13.83
2017-12-19T20:45:09.684Z,15.30
2017-12-19T20:50:10.581Z,13.93
2017-12-19T20:55:11.424Z,13.67
2017-12-19T21:00:12.332Z,13.20
2017-12-19T21:05:13.085Z,14.70
2017-12-19T21:10:13.899Z,12.10
2017-12-19T21:15:14.726Z,13.67
2017-12-19T21:20:15.568Z,15.47
2017-12-19T21:25:16.398Z,14.03
2017-12-19T21:30:17.279Z,13.77
2017-12-19T21:35:18.106Z,14.20
2017-12-19T21:40:18.962Z,14.50
2017-12-19T21:45:19.822Z,13.20
2017-12-19T21:50:20.672Z,13.13
2017-12-19T21:55:21.519Z,15.20
2017-12-19T22:00:22.342Z,14.47
2017-12-19T22:05:23.190Z,14.27
2017-12-19T22:10:26.013Z,13.40
2017-12-19T22:15:26.870Z,13.80
2017-12-19T22:20:30.957Z,13.97
2017-12-19T22:25:31.832Z,14.37
2017-12-19T22:30:32.654Z,14.20
2017-12-19T22:35:33.590Z,15.93
2017-12-19T22:40:34.675Z,15.60
2017-12-19T22:45:35.481Z,15.53
2017-12-19T22:50:36.343Z,15.77
2017-12-19T22:55:37.258Z,15.00
2017-12-19T23:00:41.984Z,16.67
2017-12-19T23:05:42.875Z,15.90
2017-12-19T23:10:43.795Z,15.37
2017-12-19T23:15:44.697Z,15.50
2017-12-19T23:20:45.536Z,15.43
2017-12-19T23:25:46.382Z,16.33
2017-12-19T23:30:47.214Z,14.90
2017-12-19T23:35:54.149Z,15.77
2017-12-19T23:40:54.965Z,14.63
2017-12-19T23:45:55.798Z,15.13
2017-12-19T23:51:03.541Z,14.07
2017-12-19T23:56:04.415Z,13.77
